Time;durP1;ratioP1;P1;durP2;ratioP2;P2;SDS_P1;SDS_P2;PMS_P1;PMS_P2;Temp;Humidity;BMP_temperature;BMP_pressure;BME280_temperature;BME280_humidity;BME280_pressure;Samples;Min_cycle;Max_cycle;Signal;HPM_P1;HPM_P2
2022/11/05 00:19:05;;;;;;;32.50;22.70;;;;;;;14.11;66.14;98114.23;223214;1254;139685;-62
2022/11/05 00:29:30;;;;;;;32.90;22.40;;;;;;;14.02;66.21;98108.98;223263;1257;140486;-63
2022/11/05 00:34:33;;;;;;;31.80;20.60;;;;;;;13.96;66.00;98115.10;223171;1254;140176;-60
2022/11/05 00:39:36;;;;;;;33.30;21.10;;;;;;;13.94;66.11;98115.94;223849;1247;140180;-64
2022/11/05 00:50:01;;;;;;;30.20;22.30;;;;;;;14.02;66.29;98108.14;223089;1254;140010;-69
2022/11/05 00:55:04;;;;;;;32.30;21.70;;;;;;;14.02;66.36;98099.91;223179;1254;139503;-61
2022/11/05 01:00:10;;;;;;;32.80;21.80;;;;;;;13.99;66.39;98094.70;223167;1250;140741;-78
2022/11/05 01:05:13;;;;;;;29.50;21.70;;;;;;;13.92;66.40;98093.10;223904;1250;139700;-79
2022/11/05 01:10:16;;;;;;;27.30;19.90;;;;;;;13.90;66.15;98103.36;223902;1249;140165;-70
2022/11/05 01:15:20;;;;;;;32.60;20.80;;;;;;;13.92;66.31;98115.98;223321;1251;140585;-61
2022/11/05 01:20:23;;;;;;;31.00;21.30;;;;;;;13.94;66.24;98114.15;224045;1246;140620;-63
2022/11/05 01:25:26;;;;;;;35.30;22.30;;;;;;;13.97;66.25;98114.45;223977;1239;139947;-63
2022/11/05 01:30:30;;;;;;;29.30;21.90;;;;;;;13.99;66.33;98123.35;223219;1257;139605;-66
2022/11/05 01:35:33;;;;;;;28.80;22.10;;;;;;;14.00;66.21;98131.89;223055;1256;139745;-67
2022/11/05 01:40:36;;;;;;;32.90;22.90;;;;;;;13.96;65.99;98139.50;223158;1257;140314;-67
2022/11/05 01:45:39;;;;;;;32.80;21.30;;;;;;;13.91;66.17;98138.54;223106;1257;140060;-63
2022/11/05 01:50:56;;;;;;;30.60;21.00;;;;;;;13.86;66.44;98141.49;223102;1263;141027;-65
2022/11/05 01:56:08;;;;;;;30.50;20.70;;;;;;;13.86;66.33;98145.63;223358;1248;140306;-65
2022/11/05 02:01:11;;;;;;;29.00;20.80;;;;;;;13.86;66.28;98152.92;223317;1257;140126;-70
2022/11/05 02:06:16;;;;;;;29.60;21.50;;;;;;;13.88;66.49;98162.15;223221;1249;140045;-70
2022/11/05 02:11:19;;;;;;;33.50;23.20;;;;;;;13.89;66.47;98164.42;223086;1256;139959;-70
2022/11/05 02:16:28;;;;;;;29.90;21.20;;;;;;;13.85;66.48;98171.67;223891;1243;140388;-71
2022/11/05 02:22:21;;;;;;;33.30;22.70;;;;;;;13.82;66.46;98177.30;223271;1246;139833;-72
2022/11/05 02:27:49;;;;;;;26.10;18.10;;;;;;;13.75;66.54;98183.29;223404;1241;140828;-67
2022/11/05 02:33:15;;;;;;;31.70;22.50;;;;;;;13.76;66.64;98187.18;223078;1257;140244;-71
2022/11/05 02:38:46;;;;;;;29.00;21.40;;;;;;;13.84;67.04;98190.70;223450;1253;140019;-68
2022/11/05 02:43:55;;;;;;;33.60;21.80;;;;;;;13.95;67.00;98191.45;223899;1240;140523;-69
2022/11/05 02:49:23;;;;;;;32.10;19.60;;;;;;;14.00;66.83;98202.30;223952;1247;140094;-69
2022/11/05 02:54:29;;;;;;;25.10;17.50;;;;;;;14.03;66.94;98210.92;223399;1256;140032;-64
2022/11/05 02:59:32;;;;;;;;;;;;;;;14.01;66.73;98225.55;223999;1247;139503;-64
2022/11/05 03:04:35;;;;;;;14.00;11.40;;;;;;;13.96;66.50;98238.88;223981;1247;125707;-64
2022/11/05 03:10:16;;;;;;;12.30;8.70;;;;;;;13.87;66.16;98251.77;223900;1250;140180;-68
2022/11/05 03:15:44;;;;;;;6.70;5.30;;;;;;;13.77;65.43;98267.13;223146;1256;141512;-65
2022/11/05 03:20:59;;;;;;;5.10;3.30;;;;;;;13.76;65.47;98285.38;223385;1257;139670;-64
2022/11/05 03:26:16;;;;;;;4.30;3.10;;;;;;;13.63;65.09;98293.48;224079;1247;140270;-63
2022/11/05 03:31:21;;;;;;;5.00;3.20;;;;;;;13.57;64.97;98295.77;223392;1257;139139;-64
2022/11/05 03:36:33;;;;;;;3.70;3.10;;;;;;;13.49;64.62;98297.48;223898;1253;139167;-60
2022/11/05 03:41:42;;;;;;;3.70;3.00;;;;;;;13.39;64.44;98305.48;223832;1247;140370;-61
2022/11/05 03:46:48;;;;;;;3.40;2.80;;;;;;;13.33;64.44;98320.63;223175;1255;140582;-60
2022/11/05 03:52:00;;;;;;;3.70;2.90;;;;;;;13.24;64.07;98326.83;223331;1249;139151;-67
2022/11/05 03:57:09;;;;;;;20.10;15.10;;;;;;;13.15;64.16;98329.80;223881;1241;139750;-63
2022/11/05 04:02:14;;;;;;;4.00;3.10;;;;;;;13.12;64.30;98328.95;223480;1248;141469;-62
2022/11/05 04:18:00;;;;;;;14.20;12.80;;;;;;;13.08;64.05;98343.02;223269;1256;139630;-66
2022/11/05 04:30:17;;;;;;;3.00;2.50;;;;;;;13.02;63.77;98343.45;223899;1247;141660;-63
2022/11/05 04:33:50;;;;;;;15.70;13.60;;;;;;;13.03;63.87;98346.94;223081;1257;140344;-67
2022/11/05 04:38:53;;;;;;;4.60;3.50;;;;;;;13.04;63.60;98348.81;223931;1247;139439;-61
2022/11/05 04:43:59;;;;;;;3.40;3.10;;;;;;;13.00;63.71;98350.75;223384;1256;139895;-68
2022/11/05 04:49:02;;;;;;;3.10;2.80;;;;;;;12.93;63.54;98353.10;223152;1248;139271;-68
2022/11/05 04:54:05;;;;;;;2.70;2.50;;;;;;;12.91;63.46;98355.44;223949;1249;142179;-68
2022/11/05 04:59:08;;;;;;;3.00;2.50;;;;;;;12.93;63.41;98365.05;223303;1256;141028;-67
2022/11/05 05:04:11;;;;;;;2.80;2.30;;;;;;;12.96;63.31;98366.23;223263;1247;139364;-68
2022/11/05 05:09:15;;;;;;;3.80;2.70;;;;;;;12.97;63.20;98378.77;223237;1248;139626;-67
2022/11/05 05:14:17;;;;;;;4.30;2.60;;;;;;;12.95;63.43;98381.79;223487;1257;139443;-64
2022/11/05 05:19:23;;;;;;;45.80;31.80;;;;;;;12.93;63.40;98392.84;223909;1240;139253;-67
2022/11/05 05:24:26;;;;;;;4.50;2.70;;;;;;;12.94;63.36;98396.49;223946;1242;139707;-67
2022/11/05 05:29:29;;;;;;;2.30;2.00;;;;;;;12.93;63.08;98399.46;223240;1250;140504;-64
2022/11/05 05:34:32;;;;;;;1.70;1.50;;;;;;;12.89;62.90;98406.48;223969;1242;140430;-66
2022/11/05 05:39:35;;;;;;;3.30;2.00;;;;;;;12.89;62.88;98405.96;223110;1257;139630;-62
2022/11/05 05:44:38;;;;;;;2.10;1.90;;;;;;;12.84;62.68;98406.20;222999;1257;139442;-64
2022/11/05 05:49:41;;;;;;;2.80;1.70;;;;;;;12.83;62.55;98404.86;223387;1254;140137;-67
2022/11/05 05:54:44;;;;;;;3.10;1.90;;;;;;;12.87;62.88;98413.80;223268;1256;140414;-65
2022/11/05 05:59:47;;;;;;;3.50;1.90;;;;;;;12.91;63.04;98436.83;223171;1257;138906;-69
2022/11/05 06:04:50;;;;;;;2.10;1.90;;;;;;;12.92;62.96;98450.11;223150;1251;140158;-75
2022/11/05 06:09:53;;;;;;;2.60;1.90;;;;;;;12.91;62.89;98450.83;223286;1255;139268;-67
2022/11/05 06:14:57;;;;;;;2.90;2.10;;;;;;;12.87;62.97;98462.73;223241;1254;140384;-67
2022/11/05 06:20:00;;;;;;;3.40;2.20;;;;;;;12.83;63.11;98462.91;224171;1241;139568;-64
2022/11/05 06:25:05;;;;;;;2.90;2.20;;;;;;;12.82;62.95;98472.80;223299;1249;139936;-65
2022/11/05 06:30:09;;;;;;;3.00;2.60;;;;;;;12.75;62.95;98481.86;223271;1257;140051;-63
2022/11/05 06:35:12;;;;;;;3.10;2.40;;;;;;;12.71;63.18;98494.33;224050;1240;139514;-65
2022/11/05 06:40:15;;;;;;;4.80;2.80;;;;;;;12.70;63.31;98502.92;223296;1256;139877;-64
2022/11/05 06:45:18;;;;;;;3.40;2.70;;;;;;;12.72;63.39;98511.70;223154;1257;139870;-67
2022/11/05 06:50:26;;;;;;;3.00;2.70;;;;;;;12.70;63.80;98518.59;224019;1247;139427;-65
2022/11/05 06:55:30;;;;;;;4.20;2.80;;;;;;;12.68;64.01;98518.41;223979;1246;139939;-69
2022/11/05 07:00:33;;;;;;;5.40;2.70;;;;;;;12.62;63.78;98520.52;223202;1257;139608;-65
2022/11/05 07:05:42;;;;;;;5.60;3.20;;;;;;;12.55;63.93;98525.83;223201;1249;139305;-72
2022/11/05 07:10:45;;;;;;;6.10;3.10;;;;;;;12.46;64.59;98531.19;223186;1249;140705;-75
2022/11/05 07:15:48;;;;;;;6.00;3.50;;;;;;;12.45;64.45;98539.09;223157;1256;139602;-73
2022/11/05 07:20:51;;;;;;;6.40;3.30;;;;;;;12.47;64.84;98546.17;223110;1257;140686;-71
2022/11/05 07:25:54;;;;;;;6.30;3.60;;;;;;;12.47;64.86;98555.08;223236;1257;139701;-71
2022/11/05 07:30:58;;;;;;;5.00;3.40;;;;;;;12.46;65.06;98559.48;223292;1247;140319;-67
2022/11/05 07:36:01;;;;;;;4.30;3.30;;;;;;;12.45;65.23;98561.47;223078;1248;139702;-65
2022/11/05 07:41:04;;;;;;;8.00;3.20;;;;;;;12.42;65.38;98567.02;223119;1250;141262;-67
2022/11/05 07:46:07;;;;;;;4.10;3.00;;;;;;;12.42;65.43;98573.44;223244;1255;140278;-67
2022/11/05 07:51:15;;;;;;;5.10;3.00;;;;;;;12.43;65.75;98573.21;223284;1247;140760;-65
2022/11/05 07:56:18;;;;;;;4.00;2.90;;;;;;;12.41;65.63;98579.58;223365;1249;139229;-61
2022/11/05 08:01:33;;;;;;;2.80;2.20;;;;;;;12.51;66.62;98573.65;223895;1247;140253;-63
2022/11/05 08:06:37;;;;;;;3.10;2.10;;;;;;;12.63;66.19;98578.11;223031;1257;139428;-63
2022/11/05 08:11:40;;;;;;;3.30;2.20;;;;;;;12.60;66.08;98576.75;223181;1254;139413;-63
2022/11/05 08:16:43;;;;;;;3.30;2.60;;;;;;;12.55;66.01;98580.28;223161;1257;139411;-64
2022/11/05 08:21:46;;;;;;;3.60;2.50;;;;;;;12.53;65.93;98583.58;223899;1247;139564;-64
2022/11/05 08:26:49;;;;;;;3.80;2.50;;;;;;;12.48;66.20;98587.40;223111;1257;139508;-66
2022/11/05 08:31:52;;;;;;;3.60;2.70;;;;;;;12.44;66.13;98592.73;223350;1257;139958;-62
2022/11/05 08:36:55;;;;;;;2.50;2.20;;;;;;;12.44;66.37;98602.64;223117;1255;140139;-63
2022/11/05 08:41:58;;;;;;;3.90;2.80;;;;;;;12.46;66.51;98603.88;223089;1247;140545;-68
2022/11/05 08:47:01;;;;;;;2.90;2.60;;;;;;;12.48;66.53;98609.09;223812;1242;140236;-64
2022/11/05 08:52:04;;;;;;;4.30;3.20;;;;;;;12.49;66.69;98617.58;223057;1247;139000;-61
2022/11/05 08:57:07;;;;;;;4.90;3.70;;;;;;;12.49;66.72;98623.25;223062;1255;139564;-63
2022/11/05 09:02:10;;;;;;;5.20;3.80;;;;;;;12.49;66.77;98626.42;223187;1261;139706;-65
2022/11/05 09:07:14;;;;;;;5.60;3.90;;;;;;;12.45;66.62;98629.46;223124;1248;139744;-65
2022/11/05 09:12:17;;;;;;;4.80;4.30;;;;;;;12.48;66.88;98633.85;223115;1256;140444;-64
2022/11/05 09:17:20;;;;;;;6.10;5.10;;;;;;;12.51;66.69;98636.47;223261;1247;139668;-60
2022/11/05 09:22:23;;;;;;;8.40;6.80;;;;;;;12.55;66.85;98646.11;223813;1232;140048;-63
2022/11/05 09:27:26;;;;;;;7.40;6.70;;;;;;;12.59;66.96;98650.98;223210;1255;139056;-66
2022/11/05 09:32:31;;;;;;;10.30;7.60;;;;;;;12.57;66.85;98657.88;223238;1255;139477;-68
2022/11/05 09:37:35;;;;;;;9.20;7.90;;;;;;;12.53;66.86;98664.41;223981;1240;139803;-66
2022/11/05 09:42:41;;;;;;;7.60;6.90;;;;;;;12.50;66.75;98671.75;223188;1256;139188;-65
2022/11/05 09:47:51;;;;;;;6.90;6.20;;;;;;;12.57;67.00;98668.98;223057;1250;140765;-66
2022/11/05 09:52:54;;;;;;;8.30;6.60;;;;;;;12.64;66.97;98673.00;223123;1254;140000;-67
2022/11/05 09:58:00;;;;;;;8.30;6.20;;;;;;;12.68;66.92;98675.61;224028;1247;139954;-63
2022/11/05 10:03:06;;;;;;;8.50;6.30;;;;;;;12.68;66.72;98674.70;223252;1257;139287;-65
2022/11/05 10:08:17;;;;;;;7.30;5.50;;;;;;;12.65;66.86;98677.59;223259;1247;139374;-62
2022/11/05 10:13:28;;;;;;;6.10;5.50;;;;;;;12.64;66.77;98684.44;223265;1257;139686;-62
2022/11/05 10:18:46;;;;;;;8.40;5.40;;;;;;;12.62;66.92;98691.33;223240;1257;139778;-65
2022/11/05 10:23:49;;;;;;;8.00;5.80;;;;;;;12.60;66.88;98690.42;223214;1247;140195;-65
2022/11/05 10:28:52;;;;;;;6.50;5.70;;;;;;;12.64;66.82;98692.64;223872;1243;140027;-65
2022/11/05 10:34:01;;;;;;;7.20;5.50;;;;;;;12.70;66.85;98690.88;223114;1257;139489;-69
2022/11/05 10:39:16;;;;;;;7.30;6.30;;;;;;;12.77;67.07;98695.34;223214;1256;140257;-68
2022/11/05 10:44:37;;;;;;;6.80;6.10;;;;;;;12.80;67.15;98696.55;224044;1243;140445;-65
2022/11/05 10:49:57;;;;;;;6.50;5.60;;;;;;;12.78;66.96;98710.73;224004;1242;139511;-70
2022/11/05 10:55:06;;;;;;;6.60;4.90;;;;;;;12.78;67.00;98713.27;223867;1247;139303;-66
2022/11/05 11:00:17;;;;;;;5.70;5.20;;;;;;;12.80;66.82;98715.04;223215;1257;141131;-67
2022/11/05 11:05:31;;;;;;;5.30;4.40;;;;;;;12.85;66.90;98718.20;223127;1250;139916;-65
2022/11/05 11:10:53;;;;;;;5.90;5.30;;;;;;;12.84;67.10;98724.04;223249;1251;139891;-66
2022/11/05 11:16:14;;;;;;;6.40;5.30;;;;;;;12.78;66.83;98723.33;223157;1254;140445;-66
2022/11/05 11:21:21;;;;;;;7.50;5.80;;;;;;;12.72;67.12;98727.94;223181;1257;139952;-65
2022/11/05 11:26:35;;;;;;;5.90;5.30;;;;;;;12.70;66.98;98728.64;223997;1250;139701;-68
2022/11/05 11:31:39;;;;;;;7.00;5.50;;;;;;;12.66;67.15;98733.41;223245;1259;140442;-65
2022/11/05 11:36:45;;;;;;;6.60;5.40;;;;;;;12.68;67.10;98736.08;223114;1257;140203;-66
2022/11/05 11:41:56;;;;;;;6.00;5.40;;;;;;;12.70;66.92;98730.05;223109;1256;139663;-64
2022/11/05 11:47:08;;;;;;;9.30;7.20;;;;;;;12.75;67.08;98733.79;223052;1253;140462;-65
2022/11/05 11:52:28;;;;;;;9.50;6.70;;;;;;;12.76;67.29;98737.94;223149;1257;139518;-67
2022/11/05 11:57:42;;;;;;;11.10;7.10;;;;;;;12.80;67.14;98745.34;223833;1254;140486;-65
2022/11/05 12:02:58;;;;;;;8.20;6.80;;;;;;;12.81;66.96;98745.30;223036;1256;139755;-70
2022/11/05 12:08:09;;;;;;;9.50;6.90;;;;;;;12.76;67.08;98751.51;223994;1247;139969;-67
2022/11/05 12:13:12;;;;;;;8.30;6.70;;;;;;;12.75;67.17;98755.78;223148;1262;139999;-69
2022/11/05 12:18:25;;;;;;;8.20;7.20;;;;;;;12.75;66.86;98760.62;223841;1250;140111;-66
2022/11/05 12:23:43;;;;;;;65.10;46.00;;;;;;;12.75;67.21;98764.40;223849;1250;140069;-66
2022/11/05 12:29:11;;;;;;;11.60;8.50;;;;;;;12.80;67.82;98762.77;223145;1256;139818;-64
2022/11/05 12:34:36;;;;;;;10.40;8.20;;;;;;;12.79;67.38;98770.50;223213;1257;141650;-63
2022/11/05 12:39:49;;;;;;;10.00;8.50;;;;;;;12.76;67.35;98777.67;223130;1256;139957;-68
2022/11/05 12:45:00;;;;;;;9.80;7.90;;;;;;;12.76;67.44;98781.22;223125;1257;139307;-65
2022/11/05 12:50:21;;;;;;;11.00;8.40;;;;;;;12.76;67.39;98779.40;223297;1249;139953;-68
2022/11/05 12:55:30;;;;;;;8.80;7.90;;;;;;;12.75;67.39;98781.30;223827;1246;141590;-64
2022/11/05 13:00:36;;;;;;;9.80;8.50;;;;;;;12.73;67.32;98782.34;223175;1251;139216;-68
2022/11/05 13:05:46;;;;;;;9.70;8.70;;;;;;;12.71;67.59;98785.71;223436;1262;139351;-65
2022/11/05 13:10:58;;;;;;;12.60;9.30;;;;;;;12.70;67.68;98789.69;223234;1256;139113;-63
2022/11/05 13:16:08;;;;;;;11.90;8.90;;;;;;;12.72;67.50;98794.01;223828;1246;140233;-65
2022/11/05 13:21:14;;;;;;;11.00;8.50;;;;;;;12.78;67.71;98794.42;223217;1258;140131;-65
2022/11/05 13:26:51;;;;;;;10.80;9.00;;;;;;;12.86;67.80;98799.35;223284;1254;139914;-64
2022/11/05 13:32:01;;;;;;;10.70;9.00;;;;;;;12.92;68.04;98805.50;223112;1256;139323;-68
2022/11/05 13:42:40;;;;;;;9.30;8.30;;;;;;;12.90;67.64;98813.45;223349;1256;139769;-67
2022/11/05 13:48:24;;;;;;;10.50;8.40;;;;;;;12.83;67.69;98818.30;223198;1257;231594;-64
2022/11/05 13:53:39;;;;;;;10.40;8.40;;;;;;;12.83;67.49;98821.98;223270;1265;140536;-67
2022/11/05 13:58:51;;;;;;;10.80;8.90;;;;;;;12.81;67.46;98825.00;223937;1247;140929;-65
2022/11/05 14:03:55;;;;;;;12.60;7.90;;;;;;;12.79;67.82;98831.90;223149;1257;139384;-66
2022/11/05 14:09:03;;;;;;;12.00;9.50;;;;;;;12.81;67.73;98836.96;223170;1257;139723;-65
2022/11/05 14:14:15;;;;;;;13.80;9.90;;;;;;;12.80;68.00;98842.33;223960;1250;139755;-63
2022/11/05 14:19:31;;;;;;;11.20;9.40;;;;;;;12.78;67.90;98850.80;223194;1260;140287;-66
2022/11/05 14:24:37;;;;;;;12.30;9.90;;;;;;;12.79;67.84;98864.48;223988;1250;140256;-67
2022/11/05 14:29:42;;;;;;;11.50;9.30;;;;;;;12.83;67.86;98873.51;223872;1253;140490;-66
2022/11/05 14:35:14;;;;;;;13.20;10.90;;;;;;;12.90;68.13;98885.04;222983;1263;140104;-69
2022/11/05 14:40:20;;;;;;;13.10;10.20;;;;;;;12.97;68.09;98891.11;223064;1258;139954;-67
2022/11/05 14:45:32;;;;;;;;;;;;;;;12.96;68.11;98894.58;223066;1257;140992;-65
2022/11/05 14:50:35;;;;;;;12.40;9.90;;;;;;;12.89;68.03;98890.09;223370;1256;126025;-67
2022/11/05 14:55:41;;;;;;;13.20;10.80;;;;;;;12.82;68.17;98894.58;223197;1257;140740;-70
2022/11/05 15:00:46;;;;;;;12.30;9.90;;;;;;;12.80;67.97;98898.23;223099;1253;140591;-65
2022/11/05 15:05:50;;;;;;;12.60;10.00;;;;;;;12.81;68.02;98901.19;223043;1257;141031;-65
2022/11/05 15:11:02;;;;;;;10.80;9.20;;;;;;;12.83;67.98;98912.80;223121;1251;140608;-68
2022/11/05 15:16:06;;;;;;;12.70;10.70;;;;;;;12.83;68.13;98914.39;223160;1257;139727;-61
2022/11/05 15:21:15;;;;;;;12.80;10.70;;;;;;;12.82;68.19;98919.27;223059;1254;139703;-64
2022/11/05 15:26:28;;;;;;;15.40;11.60;;;;;;;12.83;68.28;98923.63;223178;1258;140517;-67
2022/11/05 15:31:39;;;;;;;15.70;11.20;;;;;;;12.82;68.32;98932.11;223814;1250;140561;-65
2022/11/05 15:36:56;;;;;;;15.50;11.10;;;;;;;12.77;68.04;98936.77;223232;1260;140251;-64
2022/11/05 15:42:03;;;;;;;12.70;9.90;;;;;;;12.78;68.27;98941.45;223065;1260;140837;-68
2022/11/05 15:47:23;;;;;;;12.40;10.30;;;;;;;12.84;68.48;98945.30;223169;1253;140558;-65
2022/11/05 15:52:35;;;;;;;12.60;10.50;;;;;;;12.91;68.55;98955.43;223143;1256;139717;-68
2022/11/05 15:57:50;;;;;;;13.60;10.20;;;;;;;12.95;68.57;98960.34;223036;1257;140322;-65
2022/11/05 16:03:13;;;;;;;11.20;9.70;;;;;;;12.95;68.36;98965.88;223114;1258;140358;-65
2022/11/05 16:08:22;;;;;;;12.90;9.30;;;;;;;12.88;68.21;98967.98;223219;1253;139597;-74
2022/11/05 16:13:40;;;;;;;11.10;9.00;;;;;;;12.86;68.41;98975.40;223067;1254;139734;-63
2022/11/05 16:19:35;;;;;;;12.70;9.20;;;;;;;12.88;68.19;98981.85;223658;1246;140916;-64
2022/11/05 16:24:43;;;;;;;13.30;9.70;;;;;;;12.89;68.13;98981.47;223904;1250;141007;-62
2022/11/05 16:29:50;;;;;;;13.70;9.70;;;;;;;12.87;68.17;98981.60;223085;1253;139717;-63
2022/11/05 16:34:56;;;;;;;19.00;14.20;;;;;;;12.84;68.25;98985.02;223060;1250;140789;-69
2022/11/05 16:40:00;;;;;;;13.10;9.20;;;;;;;12.84;68.00;98989.43;222990;1254;139799;-65
2022/11/05 16:45:05;;;;;;;12.80;10.10;;;;;;;12.77;68.02;99002.25;223111;1256;140049;-66
2022/11/05 16:50:14;;;;;;;12.70;9.00;;;;;;;12.72;67.94;99007.03;223352;1255;140422;-65
2022/11/05 16:55:18;;;;;;;8.00;5.60;;;;;;;12.74;68.02;99017.61;223850;1244;140988;-67
2022/11/05 17:00:23;;;;;;;7.50;5.10;;;;;;;12.77;67.97;99026.13;223070;1254;140156;-66
2022/11/05 17:05:29;;;;;;;8.50;5.70;;;;;;;12.76;67.96;99030.94;223151;1257;139295;-65
2022/11/05 17:10:32;;;;;;;;;;;;;;;12.74;67.87;99036.11;223096;1250;139367;-63
2022/11/05 17:15:35;;;;;;;5.80;4.60;;;;;;;12.69;67.66;99039.34;224008;1247;126489;-63
2022/11/05 17:20:42;;;;;;;8.50;5.00;;;;;;;12.64;67.34;99043.75;223226;1257;139810;-64
2022/11/05 17:25:49;;;;;;;4.30;3.70;;;;;;;12.59;67.48;99050.36;223749;1246;141095;-63
2022/11/05 17:30:54;;;;;;;8.50;5.00;;;;;;;12.53;67.55;99058.58;223811;1250;139716;-65
2022/11/05 17:35:57;;;;;;;11.00;5.80;;;;;;;12.54;67.24;99065.95;223317;1256;142119;-62
2022/11/05 17:41:01;;;;;;;9.80;6.30;;;;;;;12.58;67.27;99073.52;223151;1255;140367;-63
2022/11/05 17:46:08;;;;;;;10.20;6.70;;;;;;;12.65;67.24;99072.17;223029;1250;140857;-64
2022/11/05 17:51:17;;;;;;;12.60;6.70;;;;;;;12.66;66.96;99074.96;223034;1258;140162;-68
2022/11/05 17:56:20;;;;;;;7.70;5.80;;;;;;;12.62;66.98;99077.34;223346;1252;139744;-64
2022/11/05 18:01:41;;;;;;;11.70;7.30;;;;;;;12.59;66.81;99075.46;223237;1248;139475;-62
2022/11/05 18:06:44;;;;;;;12.90;9.20;;;;;;;12.55;67.07;99078.22;223168;1254;139945;-64
2022/11/05 18:11:47;;;;;;;10.00;6.50;;;;;;;12.53;66.97;99078.14;223076;1253;139956;-64
2022/11/05 18:16:51;;;;;;;10.50;6.10;;;;;;;12.53;67.03;99084.77;223022;1249;140622;-64
2022/11/05 18:21:56;;;;;;;86.90;63.40;;;;;;;12.54;66.66;99094.79;223026;1257;139585;-61
2022/11/05 18:26:59;;;;;;;20.60;13.60;;;;;;;12.57;66.94;99100.30;223130;1250;140650;-65
2022/11/05 18:32:03;;;;;;;11.70;6.50;;;;;;;12.58;66.93;99100.77;224067;1247;140293;-63
2022/11/05 18:37:06;;;;;;;8.10;5.30;;;;;;;12.58;66.48;99106.52;223161;1262;139923;-65
2022/11/05 18:42:09;;;;;;;8.90;5.00;;;;;;;12.52;66.56;99103.31;223171;1253;139425;-63
2022/11/05 18:47:13;;;;;;;5.60;4.60;;;;;;;12.49;66.34;99102.48;222987;1257;139451;-62
2022/11/05 18:52:16;;;;;;;11.00;5.20;;;;;;;12.43;66.52;99107.34;222986;1251;140212;-60
2022/11/05 18:57:19;;;;;;;9.60;4.80;;;;;;;12.44;66.43;99111.87;223220;1248;140610;-64
2022/11/05 19:02:22;;;;;;;8.80;4.70;;;;;;;12.47;66.26;99118.43;223293;1251;139982;-65
2022/11/05 19:07:25;;;;;;;6.80;4.60;;;;;;;12.49;66.23;99126.10;223714;1250;139492;-64
2022/11/05 19:12:28;;;;;;;9.20;4.70;;;;;;;12.47;66.35;99136.38;222983;1250;139569;-62
2022/11/05 19:17:32;;;;;;;9.30;4.60;;;;;;;12.42;65.92;99143.19;223003;1258;139074;-64
2022/11/05 19:22:35;;;;;;;193.30;131.50;;;;;;;12.35;66.05;99145.59;222927;1257;140416;-62
2022/11/05 19:27:38;;;;;;;18.00;11.50;;;;;;;12.36;66.48;99148.93;222951;1246;140745;-66
2022/11/05 19:32:41;;;;;;;11.60;5.80;;;;;;;12.35;66.03;99151.63;223867;1243;140079;-64
2022/11/05 19:37:44;;;;;;;11.10;5.80;;;;;;;12.33;66.09;99159.46;223843;1247;140552;-66
2022/11/05 19:42:47;;;;;;;10.80;6.40;;;;;;;12.34;66.12;99163.63;222942;1258;140410;-63
2022/11/05 19:47:50;;;;;;;12.30;6.60;;;;;;;12.37;66.04;99171.45;223038;1262;139611;-65
2022/11/05 19:52:54;;;;;;;9.50;5.60;;;;;;;12.40;66.12;99176.79;223696;1250;140236;-64
2022/11/05 19:57:57;;;;;;;12.20;6.50;;;;;;;12.36;66.00;99185.38;222941;1248;139761;-64
2022/11/05 20:03:01;;;;;;;11.70;7.50;;;;;;;12.36;65.87;99192.88;223753;1251;139609;-67
2022/11/05 20:08:04;;;;;;;16.70;7.30;;;;;;;12.34;65.97;99200.09;223810;1250;139693;-68
2022/11/05 20:13:07;;;;;;;11.70;7.30;;;;;;;12.29;65.96;99204.52;223111;1250;140056;-63
2022/11/05 20:18:10;;;;;;;14.50;7.50;;;;;;;12.30;65.95;99209.27;223112;1257;140916;-67
2022/11/05 20:23:13;;;;;;;12.70;6.70;;;;;;;12.34;65.90;99209.50;223093;1250;139688;-63
2022/11/05 20:28:16;;;;;;;124.30;75.30;;;;;;;12.38;66.26;99217.64;223752;1243;139558;-61
2022/11/05 20:33:20;;;;;;;15.90;9.50;;;;;;;12.49;66.54;99229.51;223950;1250;140305;-63
2022/11/05 20:38:23;;;;;;;13.40;5.50;;;;;;;12.57;66.07;99241.48;223334;1255;139933;-64
2022/11/05 20:43:35;;;;;;;8.60;4.20;;;;;;;12.51;65.95;99246.27;223376;1251;139701;-63
2022/11/05 20:48:39;;;;;;;10.20;3.60;;;;;;;12.47;65.85;99257.10;223146;1257;140622;-67
2022/11/05 20:53:42;;;;;;;9.00;2.80;;;;;;;12.38;65.36;99264.77;223169;1257;141776;-65
2022/11/05 20:58:46;;;;;;;10.70;3.40;;;;;;;12.37;65.60;99266.66;223088;1251;140284;-63
2022/11/05 21:03:49;;;;;;;8.40;3.10;;;;;;;12.35;65.65;99268.71;223104;1257;140290;-63
2022/11/05 21:08:52;;;;;;;7.90;3.30;;;;;;;12.32;65.59;99270.16;222992;1250;139564;-65
2022/11/05 21:13:55;;;;;;;7.00;2.90;;;;;;;12.31;65.76;99266.98;223081;1253;139219;-65
2022/11/05 21:18:58;;;;;;;6.00;3.10;;;;;;;12.30;65.65;99258.88;223245;1257;139511;-65
2022/11/05 21:24:02;;;;;;;7.70;3.40;;;;;;;12.28;65.85;99261.15;223093;1256;139517;-65
2022/11/05 21:29:06;;;;;;;5.10;2.90;;;;;;;12.23;65.61;99260.80;223929;1241;139660;-65
2022/11/05 21:34:10;;;;;;;6.40;3.10;;;;;;;12.19;65.54;99263.70;223071;1249;139859;-69
2022/11/05 21:39:12;;;;;;;8.40;3.90;;;;;;;12.22;65.52;99263.49;223975;1249;140307;-63
2022/11/05 21:44:16;;;;;;;9.20;3.80;;;;;;;12.28;65.52;99265.98;223266;1250;139801;-64
2022/11/05 21:49:18;;;;;;;7.60;3.20;;;;;;;12.27;65.40;99269.73;223008;1257;139437;-64
2022/11/05 21:59:54;;;;;;;7.90;3.80;;;;;;;12.27;65.42;99272.83;223803;1247;139518;-65
2022/11/05 22:04:58;;;;;;;6.60;3.60;;;;;;;12.22;65.44;99277.76;223101;1258;139684;-66
2022/11/05 22:10:05;;;;;;;8.60;4.60;;;;;;;12.18;65.26;99281.00;223751;1250;139597;-64
2022/11/05 22:15:11;;;;;;;9.80;6.20;;;;;;;12.15;65.35;99281.03;223155;1247;139583;-64
2022/11/05 22:20:15;;;;;;;8.10;4.70;;;;;;;12.13;65.43;99285.27;224021;1250;139847;-62
2022/11/05 22:25:18;;;;;;;2.80;2.10;;;;;;;12.18;65.33;99289.96;223100;1248;141323;-63
2022/11/05 22:30:21;;;;;;;9.00;5.80;;;;;;;12.22;65.32;99292.91;223176;1257;139864;-65
2022/11/05 22:35:25;;;;;;;6.90;5.10;;;;;;;12.24;65.57;99287.75;223037;1256;139174;-65
2022/11/05 22:40:27;;;;;;;7.80;5.00;;;;;;;12.26;65.61;99294.23;223115;1257;140016;-62
2022/11/05 22:45:34;;;;;;;10.00;5.60;;;;;;;12.24;65.59;99292.00;223823;1233;139645;-63
2022/11/05 22:50:37;;;;;;;8.80;5.90;;;;;;;12.21;65.45;99290.96;223931;1250;140003;-64
2022/11/05 22:55:42;;;;;;;11.20;5.50;;;;;;;12.16;65.36;99293.61;223793;1242;139630;-62
2022/11/05 23:00:45;;;;;;;8.80;5.70;;;;;;;12.15;65.54;99294.73;223734;1242;139757;-63
2022/11/05 23:05:55;;;;;;;11.50;6.00;;;;;;;12.14;65.62;99297.83;223220;1257;140251;-62
2022/11/05 23:27:54;;;;;;;12.60;6.20;;;;;;;12.27;65.47;99304.46;223141;1243;138977;-65
2022/11/05 23:32:57;;;;;;;12.40;6.40;;;;;;;12.24;65.53;99309.27;223057;1254;139441;-64
2022/11/05 23:48:43;;;;;;;11.60;6.90;;;;;;;12.15;65.50;99299.04;223894;1240;139417;-65
2022/11/05 23:53:46;;;;;;;12.70;7.20;;;;;;;12.15;65.68;99298.46;223181;1254;140428;-65
2022/11/05 23:58:49;;;;;;;13.40;7.10;;;;;;;12.19;65.54;99296.27;223168;1257;140124;-62
